메인 페이지
METAR-TAF:

METAR-TAF

공항 :

자발푸르, 인도

위도: 23-10-54N, 경도: 80-03-31E, 고도: 495m

현재 날씨관측

예보는 20분 전, 15:00시(UTC)에 발표되었습니다.
서남서8kt
온도 36°C
습도 37%
기압 1005 hPa
시정: 6000m
고도 2500ft 상공 구름 조금
고도 3500ft 상공 구름 조금, 적란운.
고도 10000ft 상공 구름 보통

METAR: VAJB 201500Z 25008KT 6000 FEW025 FEW035CB SCT100 36/19 Q1005 TEMPO 5000 -TSRA

시각: 20:50 (15:20 UTC)

예보

예보는 1 시간 20분 전, 14:00시(UTC)에 발표되었습니다.
예보 대상 시간: 20일 15시부터 20일 24시까지 (UTC)
서북서5kt
시정: 6000m
고도 2500ft 상공 구름 조금
고도 10000ft 상공 구름 보통
전환 중
20일 18시부터 20일 20시까지 (UTC)
고도 10000ft 상공 구름 보통

TAF: VAJB 201400Z 2015/2024 29005KT 6000 FEW025 SCT100 BECMG 2018/2020 SCT100

4,000개 이상의 공항 관측 자료 및 예보 (METAR 및 TAF 보고).

지도상에서 검색 가능한 기상관측소가 노란 점과 빨간 점으로 표시되어 있습니다.

기상관측소 명을 보려면 표시 위로 마우스를 이동하세요.

날씨 관측과 예보를 보려면 클릭하세요.

지도 변경 : 확대하려면 엑스 표시가 있는 녹색 버튼, 축소하려면 빼기 표시가 있는 녹색 버튼, 다음 페이지의 지도를 보려면 녹색 화살표를 클릭하세요.


METAR-TAF: